createdAt,value
2022-07-28T00:01:59.616Z,17.50
2022-07-28T00:04:26.509Z,17.50
2022-07-28T00:06:53.142Z,17.50
2022-07-28T00:09:19.798Z,17.50
2022-07-28T00:11:51.430Z,17.50
2022-07-28T00:14:21.993Z,17.40
2022-07-28T00:16:48.693Z,17.40
2022-07-28T00:19:15.396Z,17.30
2022-07-28T00:21:42.039Z,17.30
2022-07-28T00:24:08.721Z,17.30
2022-07-28T00:26:35.348Z,17.30
2022-07-28T00:29:01.985Z,17.30
2022-07-28T00:31:28.677Z,17.20
2022-07-28T00:33:55.355Z,17.20
2022-07-28T00:36:24.690Z,17.20
2022-07-28T00:38:52.460Z,17.20
2022-07-28T00:41:20.026Z,17.20
2022-07-28T00:43:48.571Z,17.10
2022-07-28T00:46:16.252Z,17.10
2022-07-28T00:48:48.653Z,17.10
2022-07-28T00:51:15.746Z,17.10
2022-07-28T00:53:42.626Z,17.00
2022-07-28T00:56:09.545Z,17.00
2022-07-28T00:58:36.588Z,17.00
2022-07-28T01:25:48.443Z,16.80
2022-07-28T01:28:58.887Z,16.80
2022-07-28T01:31:26.431Z,16.70
2022-07-28T01:33:56.828Z,16.70
2022-07-28T01:36:26.361Z,16.70
2022-07-28T01:38:53.008Z,16.70
2022-07-28T01:41:21.052Z,16.70
2022-07-28T01:43:52.095Z,16.70
2022-07-28T01:46:18.784Z,16.70
2022-07-28T01:48:45.609Z,16.70
2022-07-28T01:51:12.273Z,16.70
2022-07-28T01:53:38.948Z,16.70
2022-07-28T01:56:05.726Z,16.70
2022-07-28T01:58:32.414Z,16.70
2022-07-28T02:00:59.106Z,16.70
2022-07-28T02:03:25.911Z,16.70
2022-07-28T02:05:53.216Z,16.60
2022-07-28T02:08:20.171Z,16.60
2022-07-28T02:10:47.041Z,16.60
2022-07-28T02:13:13.661Z,16.50
2022-07-28T02:15:40.349Z,16.50
2022-07-28T02:18:06.997Z,16.50
2022-07-28T02:20:35.185Z,16.50
2022-07-28T02:23:01.817Z,16.50
2022-07-28T02:25:28.449Z,16.50
2022-07-28T02:28:03.711Z,16.50
2022-07-28T02:30:40.132Z,16.40
2022-07-28T02:33:15.205Z,16.40
2022-07-28T02:35:45.101Z,16.40
2022-07-28T02:38:19.166Z,16.40
2022-07-28T02:40:45.775Z,16.30
2022-07-28T02:43:14.556Z,16.30
2022-07-28T02:45:45.992Z,16.30
2022-07-28T02:48:15.093Z,16.20
2022-07-28T02:50:42.851Z,16.20
2022-07-28T02:53:15.110Z,16.20
2022-07-28T02:55:46.380Z,16.20
2022-07-28T02:58:13.109Z,16.20
2022-07-28T03:00:40.285Z,16.10
2022-07-28T03:03:06.902Z,16.10
2022-07-28T03:05:33.579Z,16.10
2022-07-28T03:08:00.246Z,16.00
2022-07-28T03:10:33.003Z,16.00
2022-07-28T03:13:02.052Z,16.00
2022-07-28T03:15:28.967Z,16.00
2022-07-28T03:17:55.575Z,15.90
2022-07-28T03:20:22.228Z,15.90
2022-07-28T03:22:48.862Z,15.90
2022-07-28T03:25:26.436Z,15.90
2022-07-28T03:27:53.096Z,15.80
2022-07-28T03:30:21.307Z,15.80
2022-07-28T03:32:50.978Z,15.80
2022-07-28T03:35:18.717Z,15.70
2022-07-28T03:38:13.855Z,15.70
2022-07-28T03:40:40.927Z,15.60
2022-07-28T03:43:12.870Z,15.60
2022-07-28T03:45:40.958Z,15.50
2022-07-28T03:48:07.758Z,15.50
2022-07-28T03:50:34.733Z,15.40
2022-07-28T03:53:01.611Z,15.40
2022-07-28T03:55:28.473Z,15.40
2022-07-28T03:57:55.334Z,15.40
2022-07-28T04:00:21.983Z,15.30
2022-07-28T04:02:48.690Z,15.30
2022-07-28T04:05:16.541Z,15.30
2022-07-28T04:07:43.551Z,15.30
2022-07-28T04:10:12.262Z,15.20
2022-07-28T04:12:46.967Z,15.20
2022-07-28T04:15:13.826Z,15.20
2022-07-28T04:17:41.421Z,15.10
2022-07-28T04:20:08.727Z,15.10
2022-07-28T04:22:35.514Z,15.10
2022-07-28T04:25:02.172Z,15.10
2022-07-28T04:27:28.843Z,15.10
2022-07-28T04:29:55.530Z,15.10
2022-07-28T04:32:22.411Z,15.10
2022-07-28T04:34:49.093Z,15.10
2022-07-28T04:37:15.740Z,15.00
2022-07-28T04:39:42.440Z,15.00
2022-07-28T04:42:09.055Z,15.00
2022-07-28T04:44:35.684Z,15.00
2022-07-28T04:47:02.319Z,15.00
2022-07-28T04:49:32.948Z,15.00
2022-07-28T04:52:02.567Z,15.00
2022-07-28T04:54:29.263Z,15.00
2022-07-28T04:56:55.912Z,15.00
2022-07-28T04:59:22.686Z,15.10
2022-07-28T05:01:49.633Z,15.00
2022-07-28T05:04:16.684Z,15.10
2022-07-28T05:06:43.700Z,15.00
2022-07-28T05:09:10.426Z,15.00
2022-07-28T05:11:37.352Z,15.10
2022-07-28T05:14:04.005Z,15.10
2022-07-28T05:16:30.691Z,15.10
2022-07-28T05:18:59.139Z,15.20
2022-07-28T05:21:25.783Z,15.30
2022-07-28T05:23:52.411Z,15.30
2022-07-28T05:26:19.181Z,15.30
2022-07-28T05:28:45.812Z,15.40
2022-07-28T05:31:12.536Z,15.40
2022-07-28T05:33:39.264Z,15.40
2022-07-28T05:36:06.083Z,15.50
2022-07-28T05:38:32.871Z,15.50
2022-07-28T05:40:59.567Z,15.50
2022-07-28T05:43:27.007Z,15.60
2022-07-28T05:45:53.895Z,15.60
2022-07-28T05:48:20.821Z,15.70
2022-07-28T05:50:48.178Z,15.70
2022-07-28T05:53:15.068Z,15.80
2022-07-28T05:55:57.779Z,15.80
2022-07-28T05:58:27.663Z,15.90
2022-07-28T06:00:54.352Z,16.00
2022-07-28T06:03:21.156Z,16.10
2022-07-28T06:06:14.392Z,16.10
2022-07-28T06:08:34.446Z,16.20
2022-07-28T06:11:01.103Z,16.30
2022-07-28T06:13:30.462Z,16.30
2022-07-28T06:15:57.232Z,16.30
2022-07-28T06:18:23.904Z,16.30
2022-07-28T06:20:50.527Z,16.30
2022-07-28T06:23:17.976Z,16.30
2022-07-28T06:25:44.629Z,16.30
2022-07-28T06:28:11.250Z,16.20
2022-07-28T06:30:37.858Z,16.20
2022-07-28T06:33:04.484Z,16.20
2022-07-28T06:35:31.227Z,16.20
2022-07-28T06:38:13.310Z,16.20
2022-07-28T06:40:40.021Z,16.20
2022-07-28T06:43:06.651Z,16.30
2022-07-28T06:45:33.286Z,16.30
2022-07-28T06:47:59.936Z,16.40
2022-07-28T06:50:27.208Z,16.40
2022-07-28T06:52:55.372Z,16.50
2022-07-28T06:55:22.084Z,16.50
2022-07-28T06:57:48.961Z,16.60
2022-07-28T07:00:15.768Z,16.60
2022-07-28T07:02:42.495Z,16.70
2022-07-28T07:05:09.598Z,16.80
2022-07-28T07:07:41.050Z,16.90
2022-07-28T07:10:09.618Z,17.00
2022-07-28T07:12:36.258Z,17.10
2022-07-28T07:15:04.053Z,17.20
2022-07-28T07:17:30.772Z,17.30
2022-07-28T07:19:57.538Z,17.40
2022-07-28T07:22:24.230Z,17.50
2022-07-28T07:24:54.975Z,17.70
2022-07-28T07:27:23.631Z,17.80
2022-07-28T07:29:50.278Z,18.00
2022-07-28T07:32:16.918Z,18.30
2022-07-28T07:34:43.575Z,18.70
2022-07-28T07:37:10.275Z,19.20
2022-07-28T07:39:36.967Z,19.70
2022-07-28T07:42:03.669Z,20.20
2022-07-28T07:44:30.320Z,20.60
2022-07-28T07:46:57.049Z,20.80
2022-07-28T07:49:23.745Z,20.90
2022-07-28T07:51:50.419Z,21.30
2022-07-28T07:54:17.409Z,21.60
2022-07-28T07:56:45.170Z,21.80
2022-07-28T07:59:12.214Z,21.80
2022-07-28T08:01:40.681Z,21.80
2022-07-28T08:04:07.752Z,21.80
2022-07-28T08:06:35.852Z,21.80
2022-07-28T08:09:05.952Z,21.70
2022-07-28T08:11:32.579Z,21.60
2022-07-28T08:13:59.234Z,21.50
2022-07-28T08:16:25.950Z,21.40
2022-07-28T08:18:52.655Z,21.20
2022-07-28T08:21:19.339Z,21.20
2022-07-28T08:23:46.001Z,21.10
2022-07-28T08:26:12.624Z,21.00
2022-07-28T08:28:39.286Z,21.00
2022-07-28T08:31:06.002Z,21.00
2022-07-28T08:33:36.533Z,21.00
2022-07-28T08:36:21.459Z,21.00
2022-07-28T08:38:48.105Z,21.10
2022-07-28T08:41:21.724Z,21.20
2022-07-28T08:43:50.999Z,21.40
2022-07-28T08:46:17.687Z,21.50
2022-07-28T08:48:44.496Z,21.60
2022-07-28T08:51:19.651Z,21.70
2022-07-28T08:53:46.581Z,21.70
2022-07-28T08:56:23.547Z,21.70
2022-07-28T08:58:53.770Z,21.80
2022-07-28T09:04:10.936Z,22.10
2022-07-28T09:09:34.096Z,22.50
2022-07-28T09:12:05.299Z,22.90
2022-07-28T09:14:35.120Z,23.50
2022-07-28T09:17:02.836Z,24.20
2022-07-28T09:19:34.256Z,24.80
2022-07-28T09:23:01.560Z,25.40
2022-07-28T09:25:20.448Z,25.90
2022-07-28T09:27:47.805Z,26.40
2022-07-28T09:30:15.050Z,26.80
2022-07-28T09:38:12.655Z,27.90
2022-07-28T09:40:40.701Z,28.20
2022-07-28T09:43:08.563Z,28.20
2022-07-28T09:45:35.437Z,28.30
2022-07-28T09:48:09.609Z,28.40
2022-07-28T09:50:36.839Z,28.50
2022-07-28T09:53:27.318Z,28.50
2022-07-28T09:56:00.170Z,28.60
2022-07-28T09:58:28.069Z,28.90
2022-07-28T10:01:08.597Z,29.10
2022-07-28T10:03:42.667Z,29.30
2022-07-28T10:06:14.653Z,29.50
2022-07-28T10:08:48.468Z,29.70
2022-07-28T10:11:20.140Z,30.00
2022-07-28T10:13:54.519Z,30.20
2022-07-28T10:16:21.421Z,30.20
2022-07-28T10:18:48.390Z,30.20
2022-07-28T10:21:16.398Z,30.20
2022-07-28T10:24:09.635Z,30.30
2022-07-28T10:26:47.569Z,30.70
2022-07-28T10:32:04.370Z,31.00
2022-07-28T10:37:11.741Z,31.30
2022-07-28T10:39:50.058Z,31.40
2022-07-28T10:42:16.872Z,31.60
2022-07-28T10:44:43.608Z,31.60
2022-07-28T10:47:10.664Z,31.40
2022-07-28T10:49:45.705Z,31.30
2022-07-28T10:52:37.780Z,31.30
2022-07-28T10:55:20.207Z,31.60
2022-07-28T10:58:13.504Z,32.00
2022-07-28T11:01:05.520Z,32.30
2022-07-28T11:03:38.913Z,32.60
2022-07-28T11:06:30.391Z,32.70
2022-07-28T11:08:58.848Z,32.60
2022-07-28T11:11:44.854Z,32.70
2022-07-28T11:14:26.386Z,32.70
2022-07-28T11:16:59.851Z,32.70
2022-07-28T11:19:38.044Z,32.70
2022-07-28T11:22:14.643Z,32.60
2022-07-28T11:24:56.874Z,32.60
2022-07-28T11:27:45.307Z,32.70
2022-07-28T11:30:32.521Z,32.80
2022-07-28T11:33:06.166Z,32.90
2022-07-28T11:35:41.710Z,32.80
2022-07-28T11:38:09.745Z,33.00
2022-07-28T11:40:50.348Z,33.20
2022-07-28T11:43:35.442Z,33.20
2022-07-28T11:46:07.651Z,33.10
2022-07-28T11:48:40.778Z,32.80
2022-07-28T11:51:07.539Z,32.70
2022-07-28T11:53:44.707Z,32.40
2022-07-28T11:56:15.912Z,32.10
2022-07-28T11:58:42.943Z,31.80
2022-07-28T12:01:17.757Z,31.60
2022-07-28T12:03:50.202Z,31.30
2022-07-28T12:06:29.167Z,31.00
2022-07-28T12:08:57.945Z,30.80
2022-07-28T12:11:37.984Z,30.60
2022-07-28T12:14:06.341Z,30.40
2022-07-28T12:16:34.472Z,30.30
2022-07-28T12:19:04.828Z,30.20
2022-07-28T12:21:47.818Z,29.80
2022-07-28T12:24:30.622Z,29.50
2022-07-28T12:26:58.029Z,29.20
2022-07-28T12:29:24.753Z,29.10
2022-07-28T12:32:03.006Z,29.20
2022-07-28T12:34:33.757Z,29.30
2022-07-28T12:37:01.434Z,29.60
2022-07-28T12:39:32.303Z,30.00
2022-07-28T12:42:10.584Z,30.20
2022-07-28T12:44:47.344Z,30.30
2022-07-28T12:47:15.726Z,30.50
2022-07-28T12:49:43.348Z,30.80
2022-07-28T12:52:21.621Z,31.00
2022-07-28T12:54:54.489Z,31.40
2022-07-28T12:57:46.079Z,31.70
2022-07-28T13:00:18.585Z,31.80
2022-07-28T13:02:46.732Z,32.00
2022-07-28T13:05:30.747Z,32.10
2022-07-28T13:08:02.225Z,31.90
2022-07-28T13:10:29.222Z,31.90
2022-07-28T13:13:22.196Z,31.80
2022-07-28T13:16:17.538Z,31.70
2022-07-28T13:19:04.705Z,31.60
2022-07-28T13:21:56.558Z,31.20
2022-07-28T13:24:27.038Z,30.90
2022-07-28T13:26:53.703Z,30.60
2022-07-28T13:29:20.443Z,30.30
2022-07-28T13:31:47.332Z,30.00
2022-07-28T13:34:14.610Z,29.70
2022-07-28T13:36:44.312Z,29.60
2022-07-28T13:39:10.976Z,29.40
2022-07-28T13:41:57.744Z,29.10
2022-07-28T13:44:24.645Z,28.90
2022-07-28T13:46:51.286Z,28.80
2022-07-28T13:49:21.243Z,28.80
2022-07-28T13:51:51.066Z,28.70
2022-07-28T13:54:19.033Z,28.60
2022-07-28T13:56:46.188Z,28.50
2022-07-28T13:59:13.334Z,28.40
2022-07-28T14:01:40.146Z,28.50
2022-07-28T14:04:07.692Z,28.40
2022-07-28T14:06:34.790Z,28.40
2022-07-28T14:09:04.069Z,28.30
2022-07-28T14:11:34.616Z,28.30
2022-07-28T14:14:05.482Z,28.30
2022-07-28T14:16:32.142Z,28.30
2022-07-28T14:18:59.341Z,28.30
2022-07-28T14:21:26.005Z,28.40
2022-07-28T14:23:52.717Z,28.50
2022-07-28T14:26:35.374Z,28.40
2022-07-28T14:29:03.927Z,28.50
2022-07-28T14:31:38.087Z,28.60
2022-07-28T14:34:04.894Z,28.40
2022-07-28T14:36:31.531Z,28.40
2022-07-28T14:38:58.246Z,28.30
2022-07-28T14:41:24.916Z,28.30
2022-07-28T14:43:52.355Z,28.30
2022-07-28T14:46:29.789Z,28.30
2022-07-28T14:49:08.061Z,28.20
2022-07-28T14:51:50.449Z,28.20
2022-07-28T14:55:17.221Z,28.10
2022-07-28T15:04:26.611Z,28.30
2022-07-28T15:07:03.265Z,28.40
2022-07-28T15:09:40.000Z,28.50
2022-07-28T15:12:32.506Z,28.70
2022-07-28T15:21:04.055Z,28.70
2022-07-28T15:24:07.518Z,28.60
2022-07-28T16:42:51.304Z,27.50
2022-07-28T16:50:35.804Z,26.80
2022-07-28T16:53:02.918Z,26.80
2022-07-28T16:55:29.735Z,26.70
2022-07-28T16:57:56.502Z,26.60
2022-07-28T17:00:23.250Z,26.50
2022-07-28T17:02:50.015Z,26.40
2022-07-28T17:05:16.772Z,26.40
2022-07-28T17:07:45.937Z,26.40
2022-07-28T17:10:14.150Z,26.40
2022-07-28T17:12:43.594Z,26.40
2022-07-28T17:15:22.320Z,26.30
2022-07-28T17:17:55.195Z,26.20
2022-07-28T17:20:22.156Z,26.10
2022-07-28T17:22:49.009Z,26.00
2022-07-28T17:25:45.872Z,26.00
2022-07-28T17:28:03.294Z,25.90
2022-07-28T17:30:30.563Z,25.90
2022-07-28T17:32:57.653Z,25.90
2022-07-28T17:35:34.563Z,25.80
2022-07-28T17:38:02.632Z,25.80
2022-07-28T17:40:33.175Z,25.80
2022-07-28T17:42:59.827Z,25.70
2022-07-28T17:45:26.452Z,25.60
2022-07-28T17:47:53.108Z,25.60
2022-07-28T17:50:19.758Z,25.50
2022-07-28T17:52:46.635Z,25.50
2022-07-28T17:55:13.523Z,25.40
2022-07-28T17:57:41.294Z,25.40
2022-07-28T18:00:08.374Z,25.30
2022-07-28T18:02:35.105Z,25.20
2022-07-28T18:05:01.824Z,25.10
2022-07-28T18:07:28.573Z,25.00
2022-07-28T18:10:15.275Z,24.90
2022-07-28T18:12:43.939Z,24.80
2022-07-28T18:15:10.782Z,24.80
2022-07-28T18:17:37.525Z,24.70
2022-07-28T18:20:22.387Z,24.70
2022-07-28T18:22:49.068Z,24.60
2022-07-28T18:25:15.707Z,24.50
2022-07-28T18:27:44.850Z,24.40
2022-07-28T18:30:12.097Z,24.30
2022-07-28T18:32:38.800Z,24.20
2022-07-28T18:35:06.020Z,24.10
2022-07-28T18:37:34.887Z,24.10
2022-07-28T18:40:01.556Z,24.00
2022-07-28T18:42:30.746Z,24.00
2022-07-28T18:44:57.538Z,24.00
2022-07-28T18:47:24.330Z,23.90
2022-07-28T18:49:51.046Z,23.90
2022-07-28T18:52:18.691Z,23.80
2022-07-28T18:54:45.388Z,23.70
2022-07-28T18:57:12.106Z,23.60
2022-07-28T18:59:43.915Z,23.60
2022-07-28T19:02:12.330Z,23.60
2022-07-28T19:04:39.272Z,23.50
2022-07-28T19:07:06.232Z,23.40
2022-07-28T19:09:37.185Z,23.40
2022-07-28T19:12:06.001Z,23.40
2022-07-28T19:14:32.850Z,23.30
2022-07-28T19:16:59.501Z,23.30
2022-07-28T19:19:26.216Z,23.20
2022-07-28T19:21:52.896Z,23.20
2022-07-28T19:24:20.092Z,23.20
2022-07-28T19:26:54.484Z,23.10
2022-07-28T19:29:21.126Z,23.00
2022-07-28T19:31:50.349Z,23.00
2022-07-28T19:34:17.353Z,22.90
2022-07-28T19:36:44.199Z,22.90
2022-07-28T19:39:13.545Z,22.90
2022-07-28T19:41:40.111Z,22.80
2022-07-28T19:44:06.808Z,22.80
2022-07-28T19:46:33.507Z,22.70
2022-07-28T19:49:00.321Z,22.60
2022-07-28T19:51:27.157Z,22.60
2022-07-28T19:53:57.647Z,22.50
2022-07-28T19:56:28.782Z,22.50
2022-07-28T19:58:57.707Z,22.50
2022-07-28T20:01:24.474Z,22.40
2022-07-28T20:04:00.931Z,22.40
2022-07-28T20:06:29.624Z,22.30
2022-07-28T20:09:01.935Z,22.20
2022-07-28T20:11:28.603Z,22.10
2022-07-28T20:13:55.273Z,22.10
2022-07-28T20:16:22.052Z,22.10
2022-07-28T20:18:48.770Z,22.10
2022-07-28T20:21:15.489Z,22.00
2022-07-28T20:23:42.283Z,22.00
2022-07-28T20:26:09.113Z,22.00
2022-07-28T20:28:45.968Z,22.00
2022-07-28T20:31:16.827Z,22.00
2022-07-28T20:33:43.778Z,22.00
2022-07-28T20:36:10.442Z,21.90
2022-07-28T20:38:37.119Z,21.90
2022-07-28T20:41:06.614Z,21.90
2022-07-28T20:43:39.403Z,21.80
2022-07-28T20:46:06.202Z,21.70
2022-07-28T20:48:33.001Z,21.70
2022-07-28T20:50:59.638Z,21.60
2022-07-28T20:53:26.270Z,21.60
2022-07-28T20:55:52.960Z,21.50
2022-07-28T20:58:19.598Z,21.50
2022-07-28T21:00:46.303Z,21.50
2022-07-28T21:03:13.024Z,21.50
2022-07-28T21:05:39.730Z,21.40
2022-07-28T21:08:09.431Z,21.40
2022-07-28T21:10:42.766Z,21.40
2022-07-28T21:13:09.427Z,21.40
2022-07-28T21:15:36.069Z,21.30
2022-07-28T21:18:15.626Z,21.20
2022-07-28T21:20:42.310Z,21.20
2022-07-28T21:23:08.968Z,21.10
2022-07-28T21:25:35.611Z,21.10
2022-07-28T21:28:02.240Z,21.10
2022-07-28T21:30:29.088Z,21.00
2022-07-28T21:32:55.770Z,20.90
2022-07-28T21:35:24.432Z,20.90
2022-07-28T21:37:51.519Z,20.80
2022-07-28T21:40:19.195Z,20.90
2022-07-28T21:42:46.089Z,20.80
2022-07-28T21:45:14.126Z,20.80
2022-07-28T21:47:43.288Z,20.80
2022-07-28T21:50:10.312Z,20.80
2022-07-28T21:52:39.390Z,20.70
2022-07-28T21:55:07.039Z,20.60
2022-07-28T21:57:33.784Z,20.60
2022-07-28T22:00:00.786Z,20.60
2022-07-28T22:02:27.467Z,20.60
2022-07-28T22:04:55.815Z,20.50
2022-07-28T22:07:22.544Z,20.50
2022-07-28T22:09:49.225Z,20.50
2022-07-28T22:12:15.868Z,20.50
2022-07-28T22:14:42.535Z,20.50
2022-07-28T22:17:09.392Z,20.40
2022-07-28T22:19:36.816Z,20.40
2022-07-28T22:22:03.481Z,20.40
2022-07-28T22:24:30.136Z,20.40
2022-07-28T22:26:56.770Z,20.40
2022-07-28T22:29:23.413Z,20.40
2022-07-28T22:31:50.113Z,20.30
2022-07-28T22:34:17.268Z,20.20
2022-07-28T22:36:44.241Z,20.20
2022-07-28T22:39:10.895Z,20.20
2022-07-28T22:41:37.525Z,20.10
2022-07-28T22:44:04.643Z,20.10
2022-07-28T22:46:33.627Z,20.10
2022-07-28T22:49:00.421Z,20.10
2022-07-28T22:51:27.093Z,20.10
2022-07-28T22:53:53.730Z,20.10
2022-07-28T22:56:20.423Z,20.10
2022-07-28T22:58:48.062Z,20.10
2022-07-28T23:01:14.853Z,20.00
2022-07-28T23:03:42.022Z,20.00
2022-07-28T23:06:10.398Z,20.00
2022-07-28T23:08:37.103Z,20.00
2022-07-28T23:11:04.770Z,19.90
2022-07-28T23:13:31.450Z,19.90
2022-07-28T23:16:01.235Z,19.80
2022-07-28T23:18:28.024Z,19.80
2022-07-28T23:20:54.749Z,19.80
2022-07-28T23:23:21.471Z,19.80
2022-07-28T23:25:48.145Z,19.70
2022-07-28T23:28:14.833Z,19.70
2022-07-28T23:30:41.555Z,19.70
2022-07-28T23:33:08.265Z,19.70
2022-07-28T23:35:35.077Z,19.70
2022-07-28T23:38:01.921Z,19.70
2022-07-28T23:40:28.607Z,19.60
2022-07-28T23:42:55.320Z,19.50
2022-07-28T23:45:22.648Z,19.60
2022-07-28T23:47:49.324Z,19.60
2022-07-28T23:50:16.068Z,19.60
2022-07-28T23:52:42.794Z,19.60
2022-07-28T23:55:09.727Z,19.60
2022-07-28T23:57:36.402Z,19.60
